Time;durP1;ratioP1;P1;durP2;ratioP2;P2;SDS_P1;SDS_P2;PMS_P1;PMS_P2;Temp;Humidity;BMP_temperature;BMP_pressure;BME280_temperature;BME280_humidity;BME280_pressure;Samples;Min_cycle;Max_cycle;Signal;HPM_P1;HPM_P2
2021/04/01 00:01:54;;;;;;;36.67;21.85;;;180.10;2176.00;;;;;;5011153;28;20434;-70
2021/04/01 00:04:20;;;;;;;30.88;18.85;;;180.00;2176.00;;;;;;5010727;28;20030;-69
2021/04/01 00:06:45;;;;;;;28.10;17.95;;;179.90;2201.60;;;;;;5010674;28;20482;-67
2021/04/01 00:09:11;;;;;;;25.70;15.75;;;179.80;2176.00;;;;;;5010425;28;20391;-66
2021/04/01 00:11:37;;;;;;;27.85;16.50;;;179.70;2150.40;;;;;;5010445;28;20054;-66
2021/04/01 00:14:04;;;;;;;26.73;16.40;;;179.40;2201.60;;;;;;5014238;28;20026;-66
2021/04/01 00:16:32;;;;;;;26.52;15.48;;;179.30;2227.20;;;;;;5014406;28;20045;-67
2021/04/01 00:18:58;;;;;;;24.23;14.80;;;154.40;2252.80;;;;;;5014139;28;20025;-67
2021/04/01 00:21:24;;;;;;;23.35;15.48;;;154.40;2252.80;;;;;;5014545;28;20048;-66
2021/04/01 00:23:50;;;;;;;27.73;17.15;;;154.40;2252.80;;;;;;5014213;28;20029;-66
2021/04/01 00:26:16;;;;;;;22.42;13.15;;;154.40;2252.80;;;;;;5014112;28;20033;-66
2021/04/01 00:28:42;;;;;;;20.05;11.50;;;154.40;2252.80;;;;;;5013771;28;20033;-66
2021/04/01 00:31:07;;;;;;;19.70;12.20;;;154.30;2252.80;;;;;;5014286;28;20057;-66
2021/04/01 00:33:34;;;;;;;20.25;12.35;;;154.20;2252.80;;;;;;5014016;28;20458;-66
2021/04/01 00:35:59;;;;;;;21.05;12.70;;;154.20;2252.80;;;;;;5013781;28;20025;-68
2021/04/01 00:38:25;;;;;;;24.10;14.45;;;154.20;2252.80;;;;;;5013836;28;20109;-66
2021/04/01 00:40:51;;;;;;;18.52;11.38;;;154.20;2252.80;;;;;;5013625;28;20033;-67
2021/04/01 00:43:17;;;;;;;20.00;11.82;;;154.20;2252.80;;;;;;5013697;28;20018;-67
2021/04/01 00:45:42;;;;;;;24.58;14.05;;;154.20;2252.80;;;;;;5013808;28;20490;-66
2021/04/01 00:48:08;;;;;;;24.67;15.50;;;154.10;2252.80;;;;;;5013680;28;20033;-65
2021/04/01 00:50:34;;;;;;;35.45;20.83;;;154.20;2252.80;;;;;;5013741;28;20030;-67
2021/04/01 00:53:00;;;;;;;37.75;22.60;;;154.20;2252.80;;;;;;5013546;28;20502;-67
2021/04/01 00:55:26;;;;;;;31.00;17.95;;;154.10;2252.80;;;;;;5013606;28;20026;-66
2021/04/01 00:57:55;;;;;;;25.35;13.48;;;154.20;2252.80;;;;;;5013802;28;20032;-67
2021/04/01 01:00:28;;;;;;;15.88;9.32;;;154.10;2252.80;;;;;;5013251;28;20446;-66
2021/04/01 01:02:54;;;;;;;17.13;10.73;;;154.10;2252.80;;;;;;5013646;28;20153;-66
2021/04/01 01:05:21;;;;;;;16.65;9.73;;;153.90;2252.80;;;;;;5013117;28;20034;-67
2021/04/01 01:07:47;;;;;;;19.42;10.82;;;153.90;2252.80;;;;;;5013624;28;20022;-66
2021/04/01 01:10:16;;;;;;;18.17;10.25;;;153.80;2252.80;;;;;;5012962;28;20030;-66
2021/04/01 01:12:42;;;;;;;21.85;11.75;;;153.80;2252.80;;;;;;5013098;28;20050;-65
2021/04/01 01:15:09;;;;;;;21.98;12.80;;;153.80;2252.80;;;;;;5013293;28;20032;-67
2021/04/01 01:17:36;;;;;;;22.73;12.65;;;153.80;2252.80;;;;;;5013627;28;20025;-65
2021/04/01 01:20:05;;;;;;;26.30;13.70;;;153.80;2252.80;;;;;;5012751;28;20487;-69
2021/04/01 01:22:32;;;;;;;30.38;16.25;;;153.70;2252.80;;;;;;5013334;28;20036;-70
2021/04/01 01:24:58;;;;;;;34.33;18.13;;;153.70;2252.80;;;;;;5012398;28;20018;-65
2021/04/01 01:27:24;;;;;;;33.17;18.30;;;153.60;2252.80;;;;;;5012712;28;20356;-67
2021/04/01 01:29:50;;;;;;;33.78;16.70;;;128.90;2252.80;;;;;;5012875;28;20517;-66
2021/04/01 01:32:17;;;;;;;32.33;17.92;;;128.90;2252.80;;;;;;5012691;28;20026;-66
2021/04/01 01:34:44;;;;;;;32.85;18.45;;;128.90;2252.80;;;;;;5012853;28;20022;-66
2021/04/01 01:37:10;;;;;;;30.88;17.88;;;128.90;2252.80;;;;;;5011744;28;20384;-69
2021/04/01 01:39:35;;;;;;;31.48;17.40;;;128.90;2252.80;;;;;;5012489;28;20021;-70
2021/04/01 01:42:03;;;;;;;29.23;16.02;;;128.90;2252.80;;;;;;5012680;28;20507;-74
2021/04/01 01:44:29;;;;;;;26.30;15.93;;;128.80;2252.80;;;;;;5012764;28;20494;-70
2021/04/01 01:46:55;;;;;;;21.13;13.25;;;128.80;2252.80;;;;;;5012786;28;20483;-66
2021/04/01 01:49:21;;;;;;;24.60;14.20;;;128.70;2252.80;;;;;;5012301;28;20034;-64
2021/04/01 01:51:47;;;;;;;21.42;12.27;;;128.60;2252.80;;;;;;5012795;28;20096;-75
2021/04/01 01:54:13;;;;;;;23.15;12.57;;;128.60;2252.80;;;;;;5010919;28;20030;-65
2021/04/01 01:56:39;;;;;;;27.70;12.98;;;128.50;2252.80;;;;;;5012558;28;20025;-70
2021/04/01 01:59:05;;;;;;;26.08;15.10;;;128.40;2252.80;;;;;;5012438;28;20030;-65
2021/04/01 02:01:31;;;;;;;26.02;14.25;;;128.40;2252.80;;;;;;5012719;28;20060;-68
2021/04/01 02:04:03;;;;;;;32.20;18.05;;;128.50;2252.80;;;;;;5012515;28;20456;-69
2021/04/01 02:06:29;;;;;;;32.13;16.30;;;128.60;2252.80;;;;;;5012184;28;20494;-65
2021/04/01 02:08:58;;;;;;;36.28;18.48;;;128.60;2252.80;;;;;;5012323;28;20034;-68
2021/04/01 02:11:25;;;;;;;31.73;18.13;;;128.60;2252.80;;;;;;5011809;28;20057;-66
2021/04/01 02:13:51;;;;;;;36.65;20.23;;;128.60;2252.80;;;;;;5012230;28;20541;-74
2021/04/01 02:16:17;;;;;;;37.85;20.48;;;128.70;2252.80;;;;;;5011995;28;20034;-64
2021/04/01 02:18:43;;;;;;;30.30;18.70;;;128.70;2252.80;;;;;;5011885;28;20021;-66
2021/04/01 02:21:10;;;;;;;34.17;18.60;;;128.70;2252.80;;;;;;5012379;28;20028;-70
2021/04/01 02:23:36;;;;;;;33.67;18.35;;;128.70;2252.80;;;;;;5012221;28;20034;-65
2021/04/01 02:26:04;;;;;;;34.28;18.27;;;128.70;2252.80;;;;;;5012031;28;20029;-69
2021/04/01 02:28:31;;;;;;;39.90;22.02;;;128.80;2252.80;;;;;;5011795;28;20487;-67
2021/04/01 02:30:59;;;;;;;42.50;23.38;;;128.80;2252.80;;;;;;5011882;28;20414;-67
2021/04/01 02:33:27;;;;;;;34.22;19.13;;;128.70;2252.80;;;;;;5012024;28;20029;-64
2021/04/01 02:35:54;;;;;;;38.40;20.40;;;128.70;2252.80;;;;;;5011603;28;20010;-66
2021/04/01 02:38:21;;;;;;;39.95;21.38;;;128.80;2252.80;;;;;;5011281;28;20030;-67
2021/04/01 02:40:47;;;;;;;49.33;26.45;;;128.80;2252.80;;;;;;5011769;28;20426;-66
2021/04/01 02:43:16;;;;;;;47.38;24.50;;;128.80;2252.80;;;;;;5011677;28;20030;-66
2021/04/01 02:45:42;;;;;;;40.83;22.60;;;128.80;2252.80;;;;;;5011456;28;20020;-65
2021/04/01 02:48:08;;;;;;;42.83;22.73;;;128.90;2252.80;;;;;;5011702;28;20022;-65
2021/04/01 02:50:34;;;;;;;42.67;23.65;;;128.90;2252.80;;;;;;5011758;28;20089;-66
2021/04/01 02:52:59;;;;;;;44.85;24.90;;;128.90;2252.80;;;;;;5011676;28;20434;-66
2021/04/01 02:55:25;;;;;;;52.20;28.75;;;128.80;2252.80;;;;;;5011625;28;20458;-68
2021/04/01 02:57:51;;;;;;;50.15;26.10;;;128.90;2252.80;;;;;;5011486;28;20108;-65
2021/04/01 03:00:19;;;;;;;40.88;21.70;;;128.90;2252.80;;;;;;5011215;28;20061;-66
2021/04/01 03:02:54;;;;;;;33.80;18.88;;;128.90;2252.80;;;;;;5011244;28;20037;-65
2021/04/01 03:05:20;;;;;;;29.23;16.10;;;128.90;2252.80;;;;;;5011577;28;20041;-69
2021/04/01 03:07:45;;;;;;;30.33;16.85;;;128.90;2252.80;;;;;;5011318;28;20402;-69
2021/04/01 03:10:13;;;;;;;27.33;16.50;;;128.80;2252.80;;;;;;5010886;28;20395;-65
2021/04/01 03:12:39;;;;;;;27.55;16.20;;;128.80;2252.80;;;;;;5010842;28;20038;-66
2021/04/01 03:15:07;;;;;;;38.50;20.83;;;128.70;2252.80;;;;;;5011293;28;20021;-65
2021/04/01 03:17:33;;;;;;;40.15;22.40;;;128.60;2252.80;;;;;;5011012;28;20025;-64
2021/04/01 03:19:59;;;;;;;35.47;20.80;;;128.50;2252.80;;;;;;5010886;28;20014;-65
2021/04/01 03:22:25;;;;;;;37.95;20.42;;;128.30;2252.80;;;;;;5011366;28;20030;-65
2021/04/01 03:24:51;;;;;;;31.85;18.95;;;128.10;2252.80;;;;;;5011006;28;20022;-65
2021/04/01 03:27:17;;;;;;;28.63;16.80;;;128.00;2252.80;;;;;;5010919;28;20063;-65
2021/04/01 03:29:42;;;;;;;26.30;15.88;;;103.20;2227.20;;;;;;5010619;28;20026;-68
2021/04/01 03:32:08;;;;;;;25.90;16.05;;;103.00;2227.20;;;;;;5011445;28;20241;-68
2021/04/01 03:34:34;;;;;;;28.40;15.63;;;102.90;2227.20;;;;;;5010873;28;20029;-65
2021/04/01 03:37:00;;;;;;;28.13;15.82;;;102.90;2227.20;;;;;;5010961;28;20101;-65
2021/04/01 03:39:25;;;;;;;25.58;16.13;;;102.90;2227.20;;;;;;5010816;28;20033;-65
2021/04/01 03:41:51;;;;;;;28.50;16.35;;;102.90;2227.20;;;;;;5011068;28;20101;-65
2021/04/01 03:44:17;;;;;;;29.10;16.95;;;102.90;2227.20;;;;;;5010682;28;20457;-64
2021/04/01 03:46:43;;;;;;;27.10;16.00;;;102.80;2227.20;;;;;;5011206;28;20029;-65
2021/04/01 03:49:09;;;;;;;28.48;15.57;;;102.80;2227.20;;;;;;5014685;28;21067;-65
2021/04/01 03:51:34;;;;;;;30.45;17.75;;;102.80;2227.20;;;;;;5015185;28;20029;-69
2021/04/01 03:54:00;;;;;;;31.55;16.88;;;102.80;2227.20;;;;;;5013651;28;20490;-68
2021/04/01 03:56:26;;;;;;;29.33;16.85;;;102.80;2227.20;;;;;;5015131;28;20530;-69
2021/04/01 03:59:01;;;;;;;28.13;16.30;;;102.80;2227.20;;;;;;5014174;28;20045;-65
2021/04/01 04:06:54;;;;;;;33.70;18.52;;;102.90;2227.20;;;;;;5001551;28;20068;-64
2021/04/01 04:12:19;;;;;;;30.60;18.08;;;102.90;2227.20;;;;;;5014432;28;20042;-65
2021/04/01 04:15:01;;;;;;;36.97;20.33;;;102.90;2227.20;;;;;;5014174;28;20033;-66
2021/04/01 04:17:26;;;;;;;33.38;19.10;;;103.00;2227.20;;;;;;5014830;28;20026;-66
2021/04/01 04:19:52;;;;;;;34.60;18.67;;;102.90;2227.20;;;;;;5013601;28;20044;-66
2021/04/01 04:22:18;;;;;;;33.33;19.63;;;103.00;2227.20;;;;;;5014547;28;20025;-66
2021/04/01 04:24:43;;;;;;;38.58;22.95;;;103.00;2227.20;;;;;;5013932;28;20088;-68
2021/04/01 04:30:10;;;;;;;;;;;103.00;2227.20;;;;;;4987853;28;20156;-69
2021/04/01 04:32:36;;;;;;;39.05;20.80;;;103.00;2227.20;;;;;;5010387;28;19964;-65
2021/04/01 04:35:03;;;;;;;32.58;17.92;;;103.00;2227.20;;;;;;5012593;28;20402;-69
2021/04/01 04:37:29;;;;;;;29.23;15.27;;;103.00;2227.20;;;;;;5014111;28;20462;-65
2021/04/01 04:39:55;;;;;;;35.45;17.55;;;103.00;2227.20;;;;;;5013309;28;20467;-65
2021/04/01 04:42:20;;;;;;;42.03;20.85;;;103.10;2227.20;;;;;;5014154;28;20033;-66
2021/04/01 04:44:46;;;;;;;35.95;18.48;;;103.20;2227.20;;;;;;5013710;28;20471;-64
2021/04/01 04:47:12;;;;;;;28.13;15.68;;;128.00;2252.80;;;;;;5013622;28;20032;-66
2021/04/01 04:49:38;;;;;;;36.17;19.20;;;128.10;2252.80;;;;;;5013874;28;20075;-66
2021/04/01 04:52:04;;;;;;;31.73;16.33;;;128.20;2252.80;;;;;;5013813;28;20475;-66
2021/04/01 04:54:31;;;;;;;27.27;14.93;;;128.10;2252.80;;;;;;5013862;28;20160;-69
2021/04/01 04:57:00;;;;;;;24.00;14.50;;;128.20;2252.80;;;;;;5012435;28;20014;-66
2021/04/01 04:59:41;;;;;;;23.55;13.80;;;128.10;2252.80;;;;;;5013351;28;20033;-66
2021/04/01 05:04:55;;;;;;;30.27;19.15;;;128.00;2252.80;;;;;;5001249;28;20049;-70
2021/04/01 05:07:21;;;;;;;45.05;29.55;;;128.20;2252.80;;;;;;5013194;28;20080;-70
2021/04/01 05:09:47;;;;;;;52.40;29.17;;;128.60;2252.80;;;;;;5013210;28;20483;-69
2021/04/01 05:12:15;;;;;;;51.30;23.63;;;153.80;2252.80;;;;;;5013553;28;20080;-65
2021/04/01 05:14:40;;;;;;;104.25;43.08;;;154.20;2252.80;;;;;;5012962;28;20471;-67
2021/04/01 05:17:06;;;;;;;162.90;75.22;;;179.20;2252.80;;;;;;5013538;28;20030;-67
2021/04/01 05:19:34;;;;;;;34.30;20.05;;;179.60;2252.80;;;;;;5013107;28;20033;-67
2021/04/01 05:24:26;;;;;;;28.98;16.38;;;205.00;2124.80;;;;;;5013073;28;20033;-68
2021/04/01 05:29:32;;;;;;;27.80;16.67;;;230.50;2048.00;;;;;;5012945;28;20501;-67
2021/04/01 05:31:59;;;;;;;28.73;19.55;;;231.10;1971.20;;;;;;5008373;28;20021;-66
2021/04/01 05:34:26;;;;;;;25.80;17.50;;;256.20;1894.40;;;;;;5012727;28;20491;-67
2021/04/01 05:36:53;;;;;;;27.23;18.25;;;256.90;1843.20;;;;;;5012399;28;20037;-70
2021/04/01 05:39:21;;;;;;;22.75;15.85;;;282.10;1766.40;;;;;;5000134;28;20094;-70
2021/04/01 05:41:50;;;;;;;21.27;15.80;;;307.60;1715.20;;;;;;4997168;28;20037;-66
2021/04/01 05:52:02;;;;;;;26.40;18.33;;;358.90;1536.00;;;;;;4994158;28;20042;-67
2021/04/01 05:58:19;;;;;;;26.33;18.30;;;384.10;1484.80;;;;;;4995337;28;20527;-66
2021/04/01 06:05:43;;;;;;;27.27;19.63;;;384.10;1484.80;;;;;;4998084;28;20026;-68
2021/04/01 06:08:15;;;;;;;44.33;24.52;;;384.30;1459.20;;;;;;4994786;28;20125;-68
2021/04/01 06:10:41;;;;;;;32.42;21.85;;;358.90;1510.40;;;;;;4992422;28;20038;-69
2021/04/01 06:13:15;;;;;;;29.77;21.42;;;358.90;1510.40;;;;;;5012051;28;20442;-70
2021/04/01 06:15:50;;;;;;;31.05;22.10;;;384.00;1484.80;;;;;;5011324;28;20088;-68
2021/04/01 06:18:21;;;;;;;42.92;29.80;;;384.00;1484.80;;;;;;5005784;28;20043;-69
2021/04/01 06:20:49;;;;;;;47.33;33.80;;;359.10;1510.40;;;;;;4993721;28;20046;-70
2021/04/01 06:23:32;;;;;;;47.38;33.65;;;358.60;1561.60;;;;;;5011203;28;20029;-70
2021/04/01 06:25:59;;;;;;;44.03;29.58;;;332.90;1638.40;;;;;;5011931;28;20030;-70
2021/04/01 06:28:35;;;;;;;44.97;27.35;;;308.10;1638.40;;;;;;5011808;28;20521;-69
2021/04/01 06:31:03;;;;;;;39.78;25.40;;;308.10;1664.00;;;;;;5011615;28;20030;-68
2021/04/01 06:33:28;;;;;;;35.35;24.00;;;308.10;1664.00;;;;;;5011949;28;20474;-72
2021/04/01 06:35:56;;;;;;;36.97;23.23;;;333.00;1664.00;;;;;;5011672;28;20046;-72
2021/04/01 06:38:27;;;;;;;40.53;24.85;;;332.90;1664.00;;;;;;5011493;28;20046;-69
2021/04/01 06:41:02;;;;;;;36.47;21.65;;;332.90;1689.60;;;;;;5011331;28;20550;-67
2021/04/01 06:43:36;;;;;;;31.63;20.05;;;333.10;1689.60;;;;;;5011999;28;20033;-67
2021/04/01 06:46:08;;;;;;;30.77;21.02;;;333.50;1638.40;;;;;;5011562;28;20036;-71
2021/04/01 06:51:38;;;;;;;31.23;20.50;;;358.90;1561.60;;;;;;5011771;28;20034;-70
2021/04/01 06:54:19;;;;;;;32.03;21.30;;;359.30;1536.00;;;;;;4999188;28;20030;-67
2021/04/01 07:04:36;;;;;;;28.23;21.15;;;435.70;1382.40;;;;;;5011346;28;20105;-68
2021/04/01 07:07:13;;;;;;;28.77;20.70;;;460.80;1382.40;;;;;;5011054;28;20036;-68
2021/04/01 07:12:34;;;;;;;31.27;23.17;;;512.50;1228.80;;;;;;5011128;28;20073;-69
2021/04/01 07:15:09;;;;;;;30.83;23.90;;;512.10;1203.20;;;;;;5002415;28;20032;-69
2021/04/01 07:17:48;;;;;;;34.55;25.33;;;538.40;1152.00;;;;;;5010744;28;20060;-69
2021/04/01 07:32:05;;;;;;;29.35;24.75;;;819.20;844.80;;;;;;5010927;28;20076;-68
2021/04/01 07:48:46;;;;;;;25.95;22.83;;;922.20;716.80;;;;;;4996205;28;20049;-73
2021/04/01 07:54:07;;;;;;;24.67;20.50;;;973.00;691.20;;;;;;5008123;28;20084;-73
2021/04/01 07:57:03;;;;;;;24.17;19.27;;;973.20;665.60;;;;;;5010685;28;20084;-69
2021/04/01 07:59:35;;;;;;;23.02;18.77;;;972.90;691.20;;;;;;5008432;28;20112;-70
2021/04/01 08:04:53;;;;;;;24.85;20.45;;;973.20;665.60;;;;;;5001723;28;20036;-68
2021/04/01 08:07:21;;;;;;;22.27;18.42;;;998.80;665.60;;;;;;5010439;28;20168;-68
2021/04/01 08:09:49;;;;;;;23.63;19.85;;;998.90;665.60;;;;;;5007369;28;20116;-67
2021/04/01 08:12:27;;;;;;;22.38;18.65;;;1024.60;640.00;;;;;;4999691;28;20514;-68
2021/04/01 08:15:00;;;;;;;20.08;17.98;;;1049.90;640.00;;;;;;5004060;28;20102;-71
2021/04/01 08:17:30;;;;;;;20.33;16.17;;;1050.50;640.00;;;;;;5003942;28;20025;-68
2021/04/01 08:19:59;;;;;;;18.05;16.13;;;1100.80;614.40;;;;;;5009956;28;20080;-70
2021/04/01 08:22:28;;;;;;;18.10;15.93;;;1101.00;614.40;;;;;;5010890;28;20052;-69
2021/04/01 08:25:03;;;;;;;17.83;14.93;;;1101.20;614.40;;;;;;5010188;28;20163;-69
2021/04/01 08:27:39;;;;;;;16.02;14.38;;;1126.50;614.40;;;;;;5010462;28;20034;-68
2021/04/01 08:35:33;;;;;;;17.13;13.57;;;1127.10;588.80;;;;;;5014350;28;20493;-69
2021/04/01 08:40:29;;;;;;;13.38;12.00;;;1152.70;563.20;;;;;;5013595;28;20523;-68
2021/04/01 08:43:33;;;;;;;12.43;10.40;;;1178.50;537.60;;;;;;5013668;28;20478;-68
2021/04/01 08:46:22;;;;;;;13.10;11.18;;;1152.60;563.20;;;;;;5000703;28;20045;-68
2021/04/01 08:49:00;;;;;;;12.95;10.88;;;1178.10;563.20;;;;;;5013817;28;20069;-70
2021/04/01 08:52:03;;;;;;;11.23;9.90;;;1203.60;563.20;;;;;;5013748;28;20034;-68
2021/04/01 08:54:46;;;;;;;12.07;10.77;;;1178.30;537.60;;;;;;5013971;28;20516;-68
2021/04/01 08:57:23;;;;;;;18.83;15.30;;;1203.40;563.20;;;;;;5013565;28;20104;-69
2021/04/01 09:00:13;;;;;;;13.38;10.02;;;1228.90;563.20;;;;;;5009874;28;20490;-68
2021/04/01 09:02:45;;;;;;;14.70;10.40;;;1229.20;537.60;;;;;;5013396;28;20038;-68
2021/04/01 09:05:11;;;;;;;13.73;9.65;;;1229.70;537.60;;;;;;5013422;28;20108;-72
2021/04/01 09:07:41;;;;;;;24.15;15.20;;;1254.50;563.20;;;;;;5013187;28;20018;-72
2021/04/01 09:10:19;;;;;;;16.75;11.45;;;1254.40;563.20;;;;;;5013212;28;20486;-69
2021/04/01 09:12:51;;;;;;;17.73;12.45;;;1254.90;537.60;;;;;;5013033;28;20539;-68
2021/04/01 09:15:38;;;;;;;13.05;10.77;;;1255.30;537.60;;;;;;5013396;28;20021;-68
2021/04/01 09:18:05;;;;;;;11.98;8.82;;;1280.90;512.00;;;;;;5013370;28;20053;-68
2021/04/01 09:20:31;;;;;;;11.35;8.52;;;1255.10;537.60;;;;;;5013256;28;20067;-68
2021/04/01 09:23:09;;;;;;;10.93;8.65;;;1255.10;537.60;;;;;;5012914;28;20030;-68
2021/04/01 09:25:41;;;;;;;11.93;7.93;;;1229.30;537.60;;;;;;5013018;28;20487;-69
2021/04/01 09:28:09;;;;;;;11.85;8.50;;;1254.40;563.20;;;;;;5013005;28;20064;-68
2021/04/01 09:30:36;;;;;;;10.45;7.63;;;1254.90;563.20;;;;;;5012642;28;20017;-68
2021/04/01 09:33:09;;;;;;;10.80;7.97;;;1254.90;537.60;;;;;;5013094;28;20364;-71
2021/04/01 09:35:37;;;;;;;11.63;8.50;;;1254.60;563.20;;;;;;5013056;28;20034;-68
2021/04/01 09:38:10;;;;;;;10.60;7.25;;;1280.00;537.60;;;;;;5012788;28;20049;-68
2021/04/01 09:40:42;;;;;;;8.63;7.05;;;1280.00;537.60;;;;;;5012399;28;20109;-68
2021/04/01 09:43:19;;;;;;;8.60;6.57;;;1229.50;537.60;;;;;;5012593;28;20033;-69
2021/04/01 09:45:58;;;;;;;16.73;13.30;;;1254.60;563.20;;;;;;5011666;28;20025;-69
2021/04/01 09:48:33;;;;;;;10.33;8.20;;;1229.50;537.60;;;;;;5012968;28;20018;-68
2021/04/01 09:51:01;;;;;;;8.18;7.03;;;1254.80;563.20;;;;;;5012606;28;20030;-79
2021/04/01 09:53:28;;;;;;;8.00;6.22;;;1254.90;563.20;;;;;;5011796;28;20032;-72
2021/04/01 09:55:56;;;;;;;12.38;9.52;;;1229.40;563.20;;;;;;5012776;28;20497;-67
2021/04/01 09:58:44;;;;;;;11.43;8.38;;;1254.40;563.20;;;;;;5012314;28;20116;-69
2021/04/01 10:04:24;;;;;;;8.07;6.55;;;1280.90;512.00;;;;;;5012570;28;20033;-68
2021/04/01 10:06:50;;;;;;;8.77;5.72;;;1305.90;512.00;;;;;;4995081;28;20109;-69
2021/04/01 10:09:20;;;;;;;8.05;5.95;;;1280.40;537.60;;;;;;5008045;28;20515;-68
2021/04/01 10:12:07;;;;;;;12.55;7.32;;;1229.20;563.20;;;;;;5012300;28;20045;-68
2021/04/01 10:14:34;;;;;;;10.95;6.38;;;1152.20;588.80;;;;;;5012185;28;20030;-68
2021/04/01 10:17:11;;;;;;;8.98;7.05;;;1050.10;640.00;;;;;;5011890;28;20033;-68
2021/04/01 10:19:53;;;;;;;6.28;5.28;;;998.60;665.60;;;;;;5011677;28;20022;-68
2021/04/01 10:22:32;;;;;;;7.13;5.07;;;947.60;665.60;;;;;;5012143;28;20364;-70
2021/04/01 10:25:09;;;;;;;7.50;4.57;;;896.40;716.80;;;;;;5008721;28;20085;-71
2021/04/01 10:27:46;;;;;;;7.43;4.40;;;845.70;768.00;;;;;;5010235;28;20106;-71
2021/04/01 10:30:13;;;;;;;7.50;4.45;;;819.20;819.20;;;;;;5001635;28;20033;-66
2021/04/01 10:33:02;;;;;;;6.80;5.47;;;768.90;793.60;;;;;;5011964;28;20076;-72
2021/04/01 10:35:31;;;;;;;8.23;5.15;;;768.10;793.60;;;;;;5002944;28;20030;-69
2021/04/01 10:37:57;;;;;;;6.65;4.82;;;742.70;793.60;;;;;;5011711;28;20028;-67
2021/04/01 10:40:24;;;;;;;7.30;5.00;;;717.30;793.60;;;;;;5001141;28;20080;-67
2021/04/01 10:43:05;;;;;;;6.78;5.13;;;716.80;793.60;;;;;;5011430;28;20034;-67
2021/04/01 10:45:43;;;;;;;7.82;5.72;;;691.90;844.80;;;;;;5007617;28;20072;-68
2021/04/01 10:48:22;;;;;;;8.40;5.13;;;691.80;844.80;;;;;;5011412;28;20032;-68
2021/04/01 10:50:53;;;;;;;7.65;5.28;;;691.70;844.80;;;;;;5011579;28;20076;-69
2021/04/01 10:53:24;;;;;;;7.25;5.00;;;691.50;870.40;;;;;;5011890;28;20160;-68
2021/04/01 10:55:51;;;;;;;6.93;5.30;;;691.60;870.40;;;;;;5011187;28;20033;-68
2021/04/01 10:58:18;;;;;;;6.53;4.60;;;691.60;870.40;;;;;;5011409;28;20105;-67
2021/04/01 11:00:58;;;;;;;6.57;4.82;;;691.80;870.40;;;;;;5011017;28;20394;-67
2021/04/01 11:03:28;;;;;;;6.32;4.70;;;691.60;870.40;;;;;;5011464;28;20025;-71
2021/04/01 11:05:55;;;;;;;10.80;7.10;;;691.80;844.80;;;;;;5011563;28;20022;-65
2021/04/01 11:08:25;;;;;;;25.55;6.00;;;691.60;844.80;;;;;;5011210;28;20028;-68
2021/04/01 11:10:59;;;;;;;8.87;5.50;;;691.20;870.40;;;;;;5009698;28;20034;-68
2021/04/01 11:13:37;;;;;;;7.22;5.28;;;691.20;870.40;;;;;;5011149;28;20033;-66
2021/04/01 11:16:06;;;;;;;7.32;5.18;;;666.30;870.40;;;;;;5011129;28;20022;-67
2021/04/01 11:18:48;;;;;;;7.82;4.97;;;665.70;896.00;;;;;;5011104;28;20025;-68
2021/04/01 11:21:15;;;;;;;8.30;5.65;;;665.90;921.60;;;;;;5011126;28;20021;-67
2021/04/01 11:23:41;;;;;;;8.18;5.30;;;666.10;921.60;;;;;;5010902;28;20030;-70
2021/04/01 11:26:07;;;;;;;10.27;6.22;;;666.40;896.00;;;;;;5011356;28;20022;-67
2021/04/01 11:28:42;;;;;;;7.13;5.03;;;666.10;921.60;;;;;;5010579;28;20545;-68
2021/04/01 11:31:09;;;;;;;7.28;5.32;;;665.60;921.60;;;;;;5011510;28;20034;-68
2021/04/01 11:33:37;;;;;;;8.80;5.00;;;640.50;921.60;;;;;;5010438;28;20092;-67
2021/04/01 11:36:11;;;;;;;6.80;5.25;;;640.40;896.00;;;;;;5011169;28;20026;-68
2021/04/01 11:38:48;;;;;;;7.05;5.10;;;640.60;896.00;;;;;;5010386;28;20030;-66
2021/04/01 11:41:19;;;;;;;7.97;5.30;;;640.60;896.00;;;;;;5010756;28;20495;-67
2021/04/01 11:43:50;;;;;;;8.05;5.05;;;640.10;896.00;;;;;;5010365;28;20037;-69
2021/04/01 11:46:21;;;;;;;8.32;4.93;;;615.10;896.00;;;;;;5009595;28;20064;-67
2021/04/01 11:48:48;;;;;;;28.38;13.65;;;615.00;921.60;;;;;;4996915;28;20022;-68
2021/04/01 11:51:19;;;;;;;19.85;10.50;;;640.10;921.60;;;;;;4992507;28;20031;-66
2021/04/01 11:53:46;;;;;;;10.27;6.72;;;640.50;870.40;;;;;;5004708;28;20546;-68
2021/04/01 11:56:13;;;;;;;9.25;6.82;;;640.70;896.00;;;;;;5009276;28;20033;-67
2021/04/01 11:58:38;;;;;;;8.85;4.80;;;640.90;870.40;;;;;;5002842;28;20026;-67
2021/04/01 12:01:46;;;;;;;6.47;4.35;;;665.60;896.00;;;;;;5010924;28;20037;-67
2021/04/01 12:04:11;;;;;;;6.25;4.88;;;640.70;896.00;;;;;;5009502;28;20044;-68
2021/04/01 12:06:38;;;;;;;8.20;5.35;;;640.90;896.00;;;;;;5010825;28;20022;-67
2021/04/01 12:09:04;;;;;;;7.22;5.45;;;665.60;896.00;;;;;;5011851;28;20030;-67
2021/04/01 12:11:40;;;;;;;8.52;5.80;;;640.60;896.00;;;;;;5014260;28;20521;-67
2021/04/01 12:14:11;;;;;;;7.45;5.00;;;640.70;896.00;;;;;;5014364;28;20026;-67
2021/04/01 12:16:37;;;;;;;8.85;5.80;;;640.90;896.00;;;;;;5003377;28;20022;-68
2021/04/01 12:19:03;;;;;;;8.75;5.97;;;640.70;921.60;;;;;;5013694;28;20072;-67
2021/04/01 12:21:29;;;;;;;9.75;5.50;;;640.70;896.00;;;;;;5014143;28;20030;-71
2021/04/01 12:23:59;;;;;;;13.88;8.77;;;640.60;947.20;;;;;;5014170;28;20060;-66
2021/04/01 12:26:29;;;;;;;7.82;5.88;;;640.80;896.00;;;;;;5014038;28;20490;-67
2021/04/01 12:28:58;;;;;;;;;;;640.70;921.60;;;;;;5014293;28;20026;-71
2021/04/01 12:31:52;;;;;;;8.10;5.72;;;640.90;921.60;;;;;;5012746;28;19963;-67
2021/04/01 12:34:30;;;;;;;8.55;5.82;;;640.90;921.60;;;;;;5014062;28;20034;-67
2021/04/01 12:36:58;;;;;;;9.73;6.18;;;665.70;921.60;;;;;;5014146;28;20068;-68
2021/04/01 12:39:35;;;;;;;10.25;5.95;;;640.70;947.20;;;;;;5013621;28;20426;-67
2021/04/01 12:42:02;;;;;;;8.07;4.97;;;665.60;947.20;;;;;;5013778;28;20029;-69
2021/04/01 12:44:39;;;;;;;8.02;5.60;;;640.70;947.20;;;;;;5013766;28;20053;-68
2021/04/01 12:47:05;;;;;;;7.55;5.40;;;640.90;947.20;;;;;;5014201;28;20109;-68
2021/04/01 12:49:33;;;;;;;6.57;5.10;;;640.70;921.60;;;;;;5012752;28;20030;-68
2021/04/01 12:52:01;;;;;;;7.88;5.57;;;640.90;921.60;;;;;;5009993;28;20022;-68
2021/04/01 12:54:33;;;;;;;6.95;5.00;;;665.60;972.80;;;;;;5012526;28;20021;-69
2021/04/01 12:57:06;;;;;;;8.85;5.10;;;665.70;921.60;;;;;;5013819;28;20044;-70
2021/04/01 12:59:35;;;;;;;8.10;4.95;;;665.70;947.20;;;;;;5013297;28;20102;-68
2021/04/01 13:02:09;;;;;;;9.77;5.63;;;665.70;947.20;;;;;;5013366;28;20018;-68
2021/04/01 13:04:36;;;;;;;6.68;4.80;;;665.70;972.80;;;;;;5013081;28;20474;-68
2021/04/01 13:12:18;;;;;;;9.80;6.95;;;665.60;921.60;;;;;;5013177;28;20113;-67
2021/04/01 13:14:46;;;;;;;8.68;5.70;;;666.00;947.20;;;;;;5013403;28;20026;-68
2021/04/01 13:17:12;;;;;;;6.88;5.43;;;666.40;921.60;;;;;;5013509;28;20088;-67
2021/04/01 13:19:38;;;;;;;7.30;5.20;;;691.20;947.20;;;;;;5012853;28;20463;-67
2021/04/01 13:22:08;;;;;;;6.32;5.35;;;666.30;896.00;;;;;;5013447;28;20028;-69
2021/04/01 13:27:11;;;;;;;5.88;4.63;;;691.40;921.60;;;;;;5013421;28;20052;-71
2021/04/01 13:29:39;;;;;;;8.02;5.53;;;691.90;896.00;;;;;;5012982;28;20030;-69
2021/04/01 13:32:17;;;;;;;6.57;4.70;;;716.90;896.00;;;;;;5013149;28;20021;-69
2021/04/01 13:35:34;;;;;;;7.15;4.75;;;717.50;870.40;;;;;;5012757;28;20136;-68
2021/04/01 13:38:00;;;;;;;6.50;5.10;;;742.40;870.40;;;;;;5009780;28;20076;-67
2021/04/01 13:40:22;;;;;;;7.43;5.20;;;742.90;870.40;;;;;;5011442;28;20092;-71
2021/04/01 13:42:53;;;;;;;6.50;4.72;;;742.90;896.00;;;;;;5002823;28;20030;-68
2021/04/01 13:45:22;;;;;;;7.07;4.60;;;742.80;870.40;;;;;;4996481;28;20058;-68
2021/04/01 13:48:08;;;;;;;11.55;5.85;;;742.40;896.00;;;;;;5013199;28;20434;-68
2021/04/01 13:50:38;;;;;;;7.05;4.20;;;717.30;896.00;;;;;;5011350;28;20050;-68
2021/04/01 13:55:52;;;;;;;5.22;4.00;;;691.30;921.60;;;;;;5012213;28;20064;-68
2021/04/01 14:09:38;;;;;;;5.50;3.90;;;640.30;947.20;;;;;;4989683;28;20040;-67
2021/04/01 14:12:08;;;;;;;5.85;3.75;;;640.00;947.20;;;;;;4995791;28;20047;-67
2021/04/01 14:14:35;;;;;;;6.93;4.93;;;615.30;947.20;;;;;;4995819;28;20032;-66
2021/04/01 14:17:04;;;;;;;6.15;4.43;;;615.30;998.40;;;;;;4994341;28;20110;-67